createdAt,value
2023-04-15T00:00:36.137Z,60.1744
2023-04-15T00:01:37.671Z,60.0298
2023-04-15T00:02:39.156Z,61.2941
2023-04-15T00:03:40.869Z,64.1980
2023-04-15T00:04:41.982Z,63.5235
2023-04-15T00:05:43.406Z,63.0168
2023-04-15T00:06:44.809Z,63.2816
2023-04-15T00:07:47.215Z,63.5145
2023-04-15T00:08:47.688Z,63.4227
2023-04-15T00:09:54.195Z,62.9842
2023-04-15T00:10:50.606Z,62.7948
2023-04-15T00:11:52.031Z,62.0487
2023-04-15T00:12:53.437Z,61.1347
2023-04-15T00:13:54.962Z,61.2062
2023-04-15T00:14:56.359Z,61.8051
2023-04-15T00:15:57.831Z,61.6491
2023-04-15T00:16:59.250Z,60.8659
2023-04-15T00:18:00.730Z,61.1985
2023-04-15T00:19:02.363Z,60.5175
2023-04-15T00:20:03.606Z,59.7943
2023-04-15T00:21:05.044Z,59.9611
2023-04-15T00:22:06.406Z,60.3592
2023-04-15T00:23:07.834Z,60.3622
2023-04-15T00:24:09.425Z,60.1377
2023-04-15T00:25:10.798Z,60.1521
2023-04-15T00:26:12.287Z,59.9072
2023-04-15T00:27:13.655Z,58.8834
2023-04-15T00:28:15.173Z,58.7535
2023-04-15T00:29:16.577Z,59.8954
2023-04-15T00:30:18.058Z,63.2608
2023-04-15T00:31:19.442Z,62.6507
2023-04-15T00:32:20.882Z,62.0643
2023-04-15T00:33:22.306Z,61.7190
2023-04-15T00:34:24.235Z,61.7345
2023-04-15T00:35:25.219Z,61.9409
2023-04-15T00:36:26.696Z,62.3718
2023-04-15T00:37:28.099Z,62.2317
2023-04-15T00:38:29.518Z,62.1644
2023-04-15T00:39:31.202Z,61.3158
2023-04-15T00:40:32.478Z,60.6475
2023-04-15T00:41:34.599Z,60.7817
2023-04-15T00:42:35.370Z,60.6022
2023-04-15T00:43:36.687Z,61.0796
2023-04-15T00:44:38.271Z,60.9482
2023-04-15T00:45:39.670Z,60.7424
2023-04-15T00:46:41.658Z,60.0551
2023-04-15T00:47:42.507Z,59.3722
2023-04-15T00:48:44.690Z,59.7446
2023-04-15T00:49:45.516Z,59.2067
2023-04-15T00:50:47.255Z,60.9860
2023-04-15T00:51:48.338Z,63.9132
2023-04-15T00:52:49.753Z,63.3686
2023-04-15T00:53:51.166Z,62.8860
2023-04-15T00:54:52.671Z,62.4438
2023-04-15T00:55:54.655Z,62.3692
2023-04-15T00:56:55.676Z,62.7682
2023-04-15T00:57:57.040Z,62.8221
2023-04-15T00:58:58.668Z,62.8353
2023-04-15T00:59:59.929Z,62.4421
2023-04-15T01:01:01.424Z,61.4420
2023-04-15T01:02:02.904Z,61.2498
2023-04-15T01:03:04.351Z,61.2030
2023-04-15T01:04:06.706Z,61.6454
2023-04-15T01:05:07.138Z,61.3388
2023-04-15T01:06:08.748Z,61.1205
2023-04-15T01:07:10.305Z,60.9955
2023-04-15T01:08:11.411Z,59.8557
2023-04-15T01:09:12.918Z,59.9249
2023-04-15T01:10:14.274Z,60.1951
2023-04-15T01:11:16.214Z,60.4364
2023-04-15T01:12:17.222Z,60.4010
2023-04-15T01:13:18.685Z,60.0512
2023-04-15T01:14:22.661Z,59.5223
2023-04-15T01:15:21.541Z,58.9389
2023-04-15T01:16:23.054Z,59.2232
2023-04-15T01:17:24.506Z,61.5725
2023-04-15T01:18:25.854Z,64.1683
2023-04-15T01:19:27.296Z,63.3463
2023-04-15T01:20:28.720Z,62.7089
2023-04-15T01:21:30.291Z,62.2306
2023-04-15T01:22:32.129Z,62.1568
2023-04-15T01:23:33.040Z,62.7254
2023-04-15T01:24:34.404Z,62.7673
2023-04-15T01:25:35.933Z,62.5945
2023-04-15T01:26:37.401Z,62.2554
2023-04-15T01:27:38.857Z,61.2708
2023-04-15T01:28:40.242Z,60.7966
2023-04-15T01:29:41.726Z,61.2100
2023-04-15T01:30:43.091Z,61.5243
2023-04-15T01:31:44.659Z,61.2514
2023-04-15T01:32:46.090Z,60.7058
2023-04-15T01:33:47.433Z,60.7859
2023-04-15T01:34:51.690Z,60.1070
2023-04-15T01:35:51.215Z,59.7907
2023-04-15T01:36:51.756Z,60.0512
2023-04-15T01:37:53.257Z,60.1904
2023-04-15T01:38:54.692Z,60.3430
2023-04-15T01:39:56.082Z,60.0842
2023-04-15T01:40:57.647Z,63.4220
2023-04-15T01:41:58.964Z,63.8593
2023-04-15T01:43:00.469Z,63.2267
2023-04-15T01:44:01.831Z,63.3066
2023-04-15T01:45:03.286Z,63.0942
2023-04-15T01:46:04.721Z,63.2517
2023-04-15T01:47:06.169Z,62.5957
2023-04-15T01:48:07.648Z,62.6439
2023-04-15T01:49:09.181Z,61.8993
2023-04-15T01:50:10.472Z,61.2835
2023-04-15T01:51:11.924Z,61.5581
2023-04-15T01:52:13.327Z,62.0514
2023-04-15T01:53:14.886Z,61.8449
2023-04-15T01:54:16.237Z,61.3111
2023-04-15T01:55:17.781Z,61.2105
2023-04-15T01:56:19.140Z,60.5972
2023-04-15T01:57:20.559Z,59.9433
2023-04-15T01:58:22.214Z,60.0500
2023-04-15T01:59:23.658Z,60.3608
2023-04-15T02:00:25.610Z,60.5000
2023-04-15T02:01:26.484Z,60.5631
2023-04-15T02:02:28.678Z,59.8819
2023-04-15T02:03:29.367Z,59.4117
2023-04-15T02:04:31.153Z,59.2952
2023-04-15T02:05:32.122Z,59.5872
2023-04-15T02:06:33.615Z,59.1155
2023-04-15T02:07:35.052Z,58.5621
2023-04-15T02:08:36.602Z,61.4768
2023-04-15T02:09:37.934Z,63.2942
2023-04-15T02:10:39.666Z,62.7005
2023-04-15T02:11:40.765Z,62.8089
2023-04-15T02:12:42.206Z,62.9412
2023-04-15T02:13:43.725Z,63.2158
2023-04-15T02:14:45.100Z,63.1341
2023-04-15T02:15:46.537Z,62.8463
2023-04-15T02:16:48.011Z,62.4465
2023-04-15T02:17:50.200Z,61.8240
2023-04-15T02:18:50.868Z,60.9484
2023-04-15T02:19:52.716Z,61.2043
2023-04-15T02:20:53.731Z,60.8186
2023-04-15T02:21:55.164Z,61.2612
2023-04-15T02:22:56.562Z,61.2793
2023-04-15T02:23:58.141Z,61.1139
2023-04-15T02:24:59.687Z,60.8053
2023-04-15T02:26:00.924Z,60.1253
2023-04-15T02:27:02.334Z,60.0364
2023-04-15T02:28:03.802Z,60.3608
2023-04-15T02:29:05.293Z,59.9654
2023-04-15T02:30:06.777Z,62.0071
2023-04-15T02:31:08.218Z,63.9098
2023-04-15T02:32:09.633Z,63.2116
2023-04-15T02:33:11.023Z,62.5986
2023-04-15T02:34:12.427Z,62.3081
2023-04-15T02:35:13.978Z,62.4161
2023-04-15T02:36:15.686Z,62.8647
2023-04-15T02:37:18.715Z,63.0595
2023-04-15T02:38:18.187Z,62.9778
2023-04-15T02:39:20.611Z,62.8598
2023-04-15T02:40:21.221Z,61.6791
2023-04-15T02:41:22.527Z,61.1827
2023-04-15T02:42:24.164Z,61.1422
2023-04-15T02:43:25.380Z,61.7318
2023-04-15T02:44:26.844Z,61.4851
2023-04-15T02:45:28.281Z,61.5381
2023-04-15T02:46:29.855Z,61.3640
2023-04-15T02:47:31.221Z,60.2964
2023-04-15T02:48:32.632Z,60.3647
2023-04-15T02:49:34.043Z,60.2903
2023-04-15T02:50:36.151Z,60.7375
2023-04-15T02:51:37.016Z,60.9494
2023-04-15T02:52:38.453Z,60.6179
2023-04-15T02:53:39.883Z,60.1043
2023-04-15T02:54:41.288Z,59.5432
2023-04-15T02:55:42.699Z,59.5188
2023-04-15T02:56:44.158Z,59.0634
2023-04-15T02:57:45.568Z,58.5348
2023-04-15T02:58:47.105Z,57.9097
2023-04-15T02:59:48.466Z,57.6716
2023-04-15T03:00:49.940Z,57.8620
2023-04-15T03:01:51.564Z,57.3132
2023-04-15T03:02:53.329Z,57.1458
2023-04-15T03:03:54.219Z,56.7688
2023-04-15T03:04:55.652Z,56.4526
2023-04-15T03:05:57.088Z,56.2416
2023-04-15T03:06:58.731Z,55.7648
2023-04-15T03:08:00.059Z,56.0063
2023-04-15T03:09:01.692Z,55.7838
2023-04-15T03:10:02.817Z,55.4837
2023-04-15T03:11:04.321Z,55.2719
2023-04-15T03:12:06.138Z,55.2889
2023-04-15T03:13:07.247Z,54.8598
2023-04-15T03:14:08.632Z,54.8232
2023-04-15T03:15:10.048Z,54.7436
2023-04-15T03:16:12.139Z,54.6208
2023-04-15T03:17:13.047Z,54.3996
2023-04-15T03:18:14.468Z,54.2522
2023-04-15T03:19:16.185Z,54.1845
2023-04-15T03:20:17.284Z,54.2138
2023-04-15T03:21:18.835Z,53.6053
2023-04-15T03:22:20.254Z,53.3555
2023-04-15T03:23:21.735Z,53.2056
2023-04-15T03:24:23.139Z,52.7141
2023-04-15T03:25:25.232Z,53.0217
2023-04-15T03:26:25.969Z,53.1612
2023-04-15T03:27:27.489Z,53.2180
2023-04-15T03:28:28.912Z,53.2393
2023-04-15T03:29:30.386Z,53.1325
2023-04-15T03:30:31.796Z,53.0090
2023-04-15T03:31:33.314Z,53.0547
2023-04-15T03:32:34.682Z,53.1939
2023-04-15T03:33:36.265Z,53.2258
2023-04-15T03:34:37.741Z,53.0923
2023-04-15T03:35:39.012Z,52.5831
2023-04-15T03:36:40.407Z,52.6112
2023-04-15T03:37:44.725Z,52.4625
2023-04-15T03:38:43.285Z,52.5968
2023-04-15T03:39:44.767Z,52.4707
2023-04-15T03:40:46.131Z,52.3612
2023-04-15T03:41:47.593Z,52.3418
2023-04-15T03:42:49.050Z,54.8944
2023-04-15T03:43:50.775Z,54.9877
2023-04-15T03:44:51.912Z,55.3448
2023-04-15T03:45:53.380Z,55.9797
2023-04-15T03:46:54.825Z,55.5473
2023-04-15T03:47:56.555Z,55.3694
2023-04-15T03:48:57.739Z,54.9780
2023-04-15T03:49:59.151Z,55.1076
2023-04-15T03:51:00.598Z,55.0016
2023-04-15T03:52:01.965Z,55.0915
2023-04-15T03:53:03.493Z,54.8586
2023-04-15T03:54:04.912Z,54.4366
2023-04-15T03:55:06.393Z,54.8721
2023-04-15T03:56:07.743Z,54.4339
2023-04-15T03:57:09.227Z,54.3499
2023-04-15T03:58:10.607Z,53.8955
2023-04-15T03:59:12.125Z,54.0131
2023-04-15T04:00:13.562Z,54.0369
2023-04-15T04:01:14.987Z,53.7368
2023-04-15T04:02:16.465Z,53.4149
2023-04-15T04:03:18.017Z,53.3864
2023-04-15T04:04:19.357Z,53.4400
2023-04-15T04:05:20.780Z,53.2032
2023-04-15T04:06:22.150Z,53.5674
2023-04-15T04:07:23.633Z,53.1805
2023-04-15T04:08:25.011Z,53.1196
2023-04-15T04:09:26.546Z,53.3398
2023-04-15T04:10:27.960Z,53.1425
2023-04-15T04:11:29.370Z,53.1535
2023-04-15T04:12:30.809Z,52.4895
2023-04-15T04:13:32.251Z,52.3144
2023-04-15T04:14:33.719Z,52.0324
2023-04-15T04:15:35.219Z,52.2690
2023-04-15T04:16:36.637Z,52.4879
2023-04-15T04:17:38.068Z,52.1572
2023-04-15T04:18:39.406Z,52.4213
2023-04-15T04:19:40.916Z,52.1451
2023-04-15T04:20:42.805Z,51.7029
2023-04-15T04:21:43.796Z,51.4119
2023-04-15T04:22:45.233Z,52.0612
2023-04-15T04:23:46.666Z,52.0827
2023-04-15T04:24:48.105Z,52.0922
2023-04-15T04:25:49.576Z,51.7838
2023-04-15T04:26:50.893Z,51.6673
2023-04-15T04:27:52.421Z,51.6116
2023-04-15T04:28:53.741Z,51.6948
2023-04-15T04:29:55.248Z,52.0694
2023-04-15T04:30:56.714Z,51.4015
2023-04-15T04:31:58.148Z,51.3246
2023-04-15T04:32:59.594Z,51.1131
2023-04-15T04:34:00.979Z,51.1753
2023-04-15T04:35:02.403Z,51.2489
2023-04-15T04:36:03.877Z,51.3069
2023-04-15T04:37:05.229Z,50.9327
2023-04-15T04:38:06.761Z,50.5950
2023-04-15T04:39:08.078Z,50.5823
2023-04-15T04:40:09.636Z,50.6217
2023-04-15T04:41:11.081Z,50.5824
2023-04-15T04:42:12.472Z,50.3844
2023-04-15T04:43:13.893Z,50.3081
2023-04-15T04:44:15.316Z,50.2870
2023-04-15T04:45:16.781Z,50.3959
2023-04-15T04:46:18.349Z,50.4295
2023-04-15T04:47:19.648Z,50.4488
2023-04-15T04:48:21.070Z,50.3810
2023-04-15T04:49:22.464Z,50.3654
2023-04-15T04:50:24.025Z,50.3687
2023-04-15T04:51:25.478Z,50.3978
2023-04-15T04:52:26.777Z,50.4262
2023-04-15T04:53:28.303Z,50.2803
2023-04-15T04:54:29.685Z,50.0857
2023-04-15T04:55:31.361Z,49.7270
2023-04-15T04:56:32.609Z,49.4316
2023-04-15T04:57:34.028Z,49.0407
2023-04-15T04:58:35.559Z,48.7199
2023-04-15T04:59:37.084Z,48.3255
2023-04-15T05:00:38.532Z,47.7875
2023-04-15T05:01:39.983Z,47.8928
2023-04-15T05:02:41.435Z,50.8557
2023-04-15T05:03:42.946Z,51.1695
2023-04-15T05:04:44.255Z,50.8469
2023-04-15T05:05:45.651Z,50.0790
2023-04-15T05:06:47.111Z,49.6949
2023-04-15T05:07:48.580Z,50.0377
2023-04-15T05:08:49.857Z,49.2056
2023-04-15T05:09:51.393Z,48.6705
2023-04-15T05:10:52.777Z,48.7548
2023-04-15T05:11:54.347Z,48.5563
2023-04-15T05:12:55.630Z,48.8197
2023-04-15T05:13:57.107Z,48.0760
2023-04-15T05:14:58.476Z,47.5729
2023-04-15T05:16:00.118Z,46.8121
2023-04-15T05:17:01.756Z,47.2984
2023-04-15T05:18:02.929Z,47.6086
2023-04-15T05:19:04.296Z,47.2880
2023-04-15T05:20:06.268Z,47.0100
2023-04-15T05:21:07.201Z,46.8279
2023-04-15T05:22:08.580Z,46.1111
2023-04-15T05:23:10.051Z,46.2319
2023-04-15T05:24:11.484Z,46.7812
2023-04-15T05:25:12.930Z,46.6967
2023-04-15T05:26:14.347Z,46.0800
2023-04-15T05:27:16.333Z,45.7793
2023-04-15T05:28:17.200Z,45.0646
2023-04-15T05:29:18.660Z,45.7522
2023-04-15T05:30:20.043Z,45.8847
2023-04-15T05:31:21.646Z,45.8710
2023-04-15T05:32:23.324Z,46.2015
2023-04-15T05:33:24.408Z,45.6225
2023-04-15T05:34:25.785Z,44.7363
2023-04-15T05:35:27.280Z,45.5348
2023-04-15T05:36:28.757Z,45.7862
2023-04-15T05:37:30.216Z,45.8184
2023-04-15T05:38:31.564Z,45.2300
2023-04-15T05:39:33.029Z,44.7971
2023-04-15T05:40:34.429Z,44.4094
2023-04-15T05:41:35.987Z,45.1323
2023-04-15T05:42:37.360Z,45.5233
2023-04-15T05:43:38.778Z,45.3013
2023-04-15T05:44:40.209Z,44.8665
2023-04-15T05:45:41.687Z,44.6613
2023-04-15T05:46:43.111Z,44.4905
2023-04-15T05:47:44.696Z,45.2285
2023-04-15T05:48:45.920Z,45.5012
2023-04-15T05:49:47.434Z,45.0569
2023-04-15T05:50:48.822Z,44.6055
2023-04-15T05:51:50.301Z,43.9974
2023-04-15T05:52:51.688Z,44.4565
2023-04-15T05:53:53.161Z,45.0982
2023-04-15T05:54:54.952Z,44.9209
2023-04-15T05:55:56.002Z,44.2791
2023-04-15T05:56:57.545Z,44.3897
2023-04-15T05:57:58.887Z,44.0533
2023-04-15T05:59:00.592Z,44.6241
2023-04-15T06:00:01.805Z,45.0509
2023-04-15T06:01:03.299Z,44.4462
2023-04-15T06:02:04.825Z,44.2548
2023-04-15T06:03:06.198Z,44.0122
2023-04-15T06:04:07.615Z,44.5830
2023-04-15T06:05:09.017Z,44.9565
2023-04-15T06:06:10.362Z,44.5651
2023-04-15T06:07:11.933Z,43.9208
2023-04-15T06:08:13.296Z,44.0941
2023-04-15T06:09:15.334Z,43.8423
2023-04-15T06:10:16.129Z,44.3331
2023-04-15T06:11:17.627Z,44.6980
2023-04-15T06:12:18.990Z,44.1368
2023-04-15T06:13:20.496Z,44.0236
2023-04-15T06:14:21.871Z,43.8933
2023-04-15T06:15:23.355Z,44.3507
2023-04-15T06:16:24.775Z,44.8146
2023-04-15T06:17:26.209Z,44.2626
2023-04-15T06:18:27.668Z,43.6844
2023-04-15T06:19:29.091Z,43.7607
2023-04-15T06:20:30.436Z,43.3498
2023-04-15T06:21:31.939Z,44.1950
2023-04-15T06:22:33.361Z,44.6845
2023-04-15T06:23:35.310Z,44.0268
2023-04-15T06:24:36.220Z,43.4758
2023-04-15T06:25:37.672Z,43.5645
2023-04-15T06:26:39.068Z,43.7931
2023-04-15T06:27:40.588Z,44.1831
2023-04-15T06:28:42.029Z,43.8883
2023-04-15T06:29:43.495Z,43.7743
2023-04-15T06:30:45.342Z,43.4584
2023-04-15T06:31:46.390Z,43.3698
2023-04-15T06:32:47.837Z,44.1790
2023-04-15T06:33:49.148Z,43.9662
2023-04-15T06:34:50.617Z,43.3638
2023-04-15T06:35:52.111Z,43.1414
2023-04-15T06:36:53.486Z,43.1056
2023-04-15T06:37:54.894Z,43.2931
2023-04-15T06:38:56.346Z,43.8964
2023-04-15T06:39:57.817Z,43.4927
2023-04-15T06:40:59.235Z,43.0665
2023-04-15T06:42:00.711Z,43.1060
2023-04-15T06:43:02.087Z,43.0149
2023-04-15T06:44:03.581Z,43.9099
2023-04-15T06:45:05.831Z,43.7460
2023-04-15T06:46:06.524Z,42.9812
2023-04-15T06:47:07.957Z,42.8294
2023-04-15T06:48:09.264Z,43.0861
2023-04-15T06:49:10.795Z,43.5638
2023-04-15T06:50:12.176Z,43.5226
2023-04-15T06:51:13.686Z,42.8448
2023-04-15T06:52:15.093Z,43.0023
2023-04-15T06:53:16.575Z,42.8757
2023-04-15T06:54:17.942Z,43.3493
2023-04-15T06:55:19.360Z,43.7066
2023-04-15T06:56:20.828Z,43.2899
2023-04-15T06:57:22.333Z,43.0754
2023-04-15T06:58:23.834Z,42.8300
2023-04-15T06:59:25.237Z,42.7250
2023-04-15T07:00:26.604Z,43.4525
2023-04-15T07:01:28.049Z,43.5748
2023-04-15T07:02:29.648Z,42.9642
2023-04-15T07:03:32.623Z,42.9112
2023-04-15T07:04:32.384Z,42.4738
2023-04-15T07:05:33.812Z,43.2231
2023-04-15T07:06:35.153Z,43.8581
2023-04-15T07:07:36.673Z,43.2083
2023-04-15T07:08:38.094Z,43.1019
2023-04-15T07:09:39.538Z,42.9864
2023-04-15T07:10:40.907Z,43.0169
2023-04-15T07:11:42.451Z,43.5300
2023-04-15T07:12:44.308Z,43.7343
2023-04-15T07:13:45.345Z,43.1348
2023-04-15T07:14:46.681Z,43.1372
2023-04-15T07:15:48.137Z,42.7937
2023-04-15T07:16:49.573Z,43.3097
2023-04-15T07:17:51.030Z,43.6709
2023-04-15T07:18:52.524Z,43.0130
2023-04-15T07:19:53.956Z,42.9982
2023-04-15T07:20:55.343Z,42.9698
2023-04-15T07:21:56.795Z,43.3621
2023-04-15T07:22:58.175Z,43.3530
2023-04-15T07:23:59.708Z,42.8678
2023-04-15T07:25:01.289Z,42.7385
2023-04-15T07:26:02.538Z,42.9442
2023-04-15T07:27:03.944Z,43.6255
2023-04-15T07:28:05.415Z,44.2709
2023-04-15T07:29:06.849Z,45.3179
2023-04-15T07:30:08.336Z,44.7147
2023-04-15T07:31:09.748Z,44.5494
2023-04-15T07:32:11.146Z,44.3728
2023-04-15T07:33:12.562Z,45.6935
2023-04-15T07:34:14.085Z,46.7265
2023-04-15T07:35:15.477Z,46.5735
2023-04-15T07:36:16.938Z,45.5369
2023-04-15T07:37:18.312Z,45.2807
2023-04-15T07:38:19.843Z,45.9613
2023-04-15T07:39:21.296Z,47.2094
2023-04-15T07:40:22.798Z,48.3066
2023-04-15T07:41:24.083Z,46.7878
2023-04-15T07:42:25.485Z,46.5318
2023-04-15T07:43:26.891Z,45.9651
2023-04-15T07:44:28.368Z,47.2130
2023-04-15T07:45:30.289Z,47.9647
2023-04-15T07:46:31.254Z,48.7443
2023-04-15T07:47:32.695Z,47.5112
2023-04-15T07:48:35.501Z,46.9720
2023-04-15T07:49:35.523Z,46.8704
2023-04-15T07:50:37.025Z,48.1160
2023-04-15T07:51:38.413Z,49.0745
2023-04-15T07:52:39.922Z,49.6883
2023-04-15T07:53:41.329Z,48.3465
2023-04-15T07:54:42.945Z,47.4461
2023-04-15T07:55:44.197Z,47.9707
2023-04-15T07:56:45.697Z,48.9298
2023-04-15T07:57:47.007Z,50.7979
2023-04-15T07:58:48.551Z,50.0987
2023-04-15T07:59:50.326Z,48.6816
2023-04-15T08:00:51.395Z,47.6861
2023-04-15T08:01:52.849Z,48.5652
2023-04-15T08:02:54.488Z,49.4951
2023-04-15T08:03:55.924Z,52.1233
2023-04-15T08:04:57.385Z,50.9376
2023-04-15T08:05:58.640Z,49.0335
2023-04-15T08:07:00.030Z,48.6435
2023-04-15T08:08:01.488Z,49.1734
2023-04-15T08:09:03.130Z,50.5165
2023-04-15T08:10:04.412Z,52.6821
2023-04-15T08:11:05.809Z,50.4756
2023-04-15T08:12:07.223Z,49.3353
2023-04-15T08:13:08.636Z,48.8697
2023-04-15T08:14:10.139Z,50.3467
2023-04-15T08:15:11.507Z,51.4842
2023-04-15T08:16:13.067Z,52.4304
2023-04-15T08:17:14.760Z,50.2252
2023-04-15T08:18:15.978Z,49.1437
2023-04-15T08:19:17.410Z,49.2919
2023-04-15T08:20:18.813Z,50.0315
2023-04-15T08:21:20.293Z,51.2667
2023-04-15T08:22:22.418Z,53.4152
2023-04-15T08:23:23.162Z,50.3600
2023-04-15T08:24:24.595Z,48.8940
2023-04-15T08:25:26.067Z,49.2841
2023-04-15T08:26:27.523Z,50.3282
2023-04-15T08:27:29.000Z,51.2929
2023-04-15T08:28:30.354Z,53.4295
2023-04-15T08:29:31.767Z,50.7882
2023-04-15T08:30:33.215Z,49.5357
2023-04-15T08:31:34.833Z,49.6431
2023-04-15T08:32:36.173Z,50.2960
2023-04-15T08:33:37.549Z,52.1915
2023-04-15T08:34:38.948Z,54.0987
2023-04-15T08:35:40.467Z,50.8307
2023-04-15T08:36:41.896Z,49.4920
2023-04-15T08:37:43.372Z,49.9263
2023-04-15T08:38:44.736Z,50.0526
2023-04-15T08:39:46.183Z,51.4387
2023-04-15T08:40:47.684Z,52.1326
2023-04-15T08:41:49.121Z,50.3052
2023-04-15T08:42:50.898Z,49.3479
2023-04-15T08:43:51.932Z,49.8082
2023-04-15T08:44:53.443Z,50.7201
2023-04-15T08:45:54.822Z,51.4934
2023-04-15T08:46:56.331Z,50.3457
2023-04-15T08:47:57.803Z,49.9711
2023-04-15T08:48:59.263Z,49.3055
2023-04-15T08:50:00.597Z,49.8586
2023-04-15T08:51:02.112Z,50.5035
2023-04-15T08:52:03.516Z,53.4193
2023-04-15T08:53:05.002Z,51.6904
2023-04-15T08:54:06.352Z,49.7480
2023-04-15T08:55:07.806Z,49.1249
2023-04-15T08:56:09.261Z,49.9712
2023-04-15T08:57:10.731Z,50.7125
2023-04-15T08:58:12.186Z,52.4229
2023-04-15T08:59:13.537Z,50.6363
2023-04-15T09:00:15.104Z,49.5252
2023-04-15T09:01:16.572Z,49.0867
2023-04-15T09:02:18.199Z,49.9779
2023-04-15T09:03:19.513Z,50.8649
2023-04-15T09:04:20.927Z,52.2709
2023-04-15T09:05:22.301Z,50.3660
2023-04-15T09:06:23.782Z,49.4055
2023-04-15T09:07:25.360Z,49.0058
2023-04-15T09:08:26.763Z,49.8802
2023-04-15T09:09:28.042Z,50.3316
2023-04-15T09:10:29.555Z,50.6476
2023-04-15T09:11:30.995Z,49.4816
2023-04-15T09:12:32.475Z,48.4887
2023-04-15T09:13:33.907Z,48.8847
2023-04-15T09:14:35.355Z,49.7809
2023-04-15T09:15:36.689Z,50.1006
2023-04-15T09:16:38.206Z,49.7919
2023-04-15T09:17:39.662Z,48.7100
2023-04-15T09:18:41.134Z,48.0591
2023-04-15T09:19:42.463Z,48.5725
2023-04-15T09:20:43.945Z,49.8520
2023-04-15T09:21:45.349Z,49.6424
2023-04-15T09:22:46.932Z,48.8098
2023-04-15T09:23:48.241Z,48.4559
2023-04-15T09:24:49.680Z,47.7649
2023-04-15T09:25:51.081Z,48.2557
2023-04-15T09:26:52.554Z,49.0521
2023-04-15T09:27:54.006Z,49.3473
2023-04-15T09:28:55.565Z,49.2819
2023-04-15T09:29:56.929Z,48.4127
2023-04-15T09:30:58.335Z,47.8546
2023-04-15T09:31:59.721Z,49.1209
2023-04-15T09:33:01.278Z,49.9447
2023-04-15T09:34:02.879Z,49.9312
2023-04-15T09:35:06.889Z,49.5954
2023-04-15T09:36:05.485Z,48.6996
2023-04-15T09:37:07.813Z,48.0914
2023-04-15T09:38:08.453Z,48.9336
2023-04-15T09:39:09.941Z,49.9844
2023-04-15T09:40:11.839Z,50.0825
2023-04-15T09:41:12.778Z,49.4318
2023-04-15T09:42:14.149Z,48.6320
2023-04-15T09:43:15.663Z,48.1939
2023-04-15T09:44:17.021Z,49.2609
2023-04-15T09:45:18.486Z,49.8709
2023-04-15T09:46:19.923Z,50.5082
2023-04-15T09:47:21.423Z,49.2864
2023-04-15T09:48:22.790Z,48.3305
2023-04-15T09:49:24.306Z,48.3647
2023-04-15T09:50:25.661Z,49.5959
2023-04-15T09:51:27.113Z,49.9622
2023-04-15T09:52:28.541Z,50.2517
2023-04-15T09:53:31.856Z,48.7826
2023-04-15T09:54:31.502Z,48.6759
2023-04-15T09:55:32.888Z,48.2984
2023-04-15T09:56:34.299Z,49.2570
2023-04-15T09:57:35.757Z,49.4763
2023-04-15T09:58:37.217Z,49.7333
2023-04-15T09:59:38.749Z,48.7890
2023-04-15T10:00:40.103Z,47.9689
2023-04-15T10:01:41.612Z,47.8097
2023-04-15T10:02:43.077Z,49.1294
2023-04-15T10:03:44.576Z,49.3391
2023-04-15T10:04:45.842Z,48.4212
2023-04-15T10:05:47.302Z,48.2157
2023-04-15T10:06:48.724Z,47.7915
2023-04-15T10:07:50.190Z,47.5993
2023-04-15T10:08:51.674Z,48.7640
2023-04-15T10:09:53.146Z,48.9478
2023-04-15T10:10:54.474Z,48.3746
2023-04-15T10:11:55.962Z,47.9117
2023-04-15T10:12:57.343Z,47.3355
2023-04-15T10:13:58.923Z,47.7594
2023-04-15T10:15:00.267Z,48.8987
2023-04-15T10:16:01.737Z,48.8061
2023-04-15T10:17:03.119Z,47.8816
2023-04-15T10:18:04.597Z,47.3160
2023-04-15T10:19:06.003Z,46.7090
2023-04-15T10:20:07.490Z,47.5020
2023-04-15T10:21:08.844Z,48.6679
2023-04-15T10:22:10.312Z,49.0290
2023-04-15T10:23:12.890Z,48.0567
2023-04-15T10:24:13.300Z,47.2927
2023-04-15T10:25:14.625Z,46.7056
2023-04-15T10:26:16.074Z,47.3350
2023-04-15T10:27:17.470Z,48.6676
2023-04-15T10:28:18.938Z,49.1045
2023-04-15T10:29:20.438Z,47.5604
2023-04-15T10:30:21.838Z,47.1681
2023-04-15T10:31:23.221Z,46.6856
2023-04-15T10:32:24.736Z,47.9905
2023-04-15T10:33:26.122Z,48.9939
2023-04-15T10:34:27.603Z,48.6395
2023-04-15T10:35:28.973Z,47.4864
2023-04-15T10:36:30.423Z,47.1136
2023-04-15T10:37:31.918Z,46.7933
2023-04-15T10:38:33.312Z,47.7642
2023-04-15T10:39:34.836Z,48.0895
2023-04-15T10:40:36.220Z,48.4030
2023-04-15T10:41:37.585Z,47.3470
2023-04-15T10:42:39.104Z,46.8068
2023-04-15T10:43:40.460Z,46.5229
2023-04-15T10:44:41.933Z,47.8111
2023-04-15T10:45:43.415Z,48.2423
2023-04-15T10:46:44.790Z,47.3994
2023-04-15T10:47:46.265Z,47.3024
2023-04-15T10:48:47.622Z,46.4989
2023-04-15T10:49:49.194Z,47.0988
2023-04-15T10:50:50.582Z,48.4931
2023-04-15T10:51:51.976Z,47.9283
2023-04-15T10:52:53.403Z,47.0371
2023-04-15T10:53:54.852Z,46.7052
2023-04-15T10:54:56.341Z,46.2520
2023-04-15T10:55:57.774Z,47.0268
2023-04-15T10:56:59.141Z,47.9761
2023-04-15T10:58:00.613Z,48.3983
2023-04-15T10:59:02.012Z,47.4199
2023-04-15T11:00:03.525Z,46.6527
2023-04-15T11:01:05.488Z,46.1259
2023-04-15T11:02:06.437Z,46.9470
2023-04-15T11:03:07.991Z,48.3675
2023-04-15T11:04:09.362Z,47.1534
2023-04-15T11:05:10.645Z,46.4444
2023-04-15T11:06:12.128Z,46.6280
2023-04-15T11:07:13.499Z,46.0840
2023-04-15T11:08:14.952Z,46.9392
2023-04-15T11:09:16.361Z,48.0482
2023-04-15T11:10:17.922Z,47.7298
2023-04-15T11:11:19.271Z,47.5149
2023-04-15T11:12:21.371Z,46.8778
2023-04-15T11:13:22.121Z,46.2591
2023-04-15T11:14:23.593Z,47.1451
2023-04-15T11:15:25.060Z,48.7308
2023-04-15T11:16:26.980Z,48.0208
2023-04-15T11:17:27.966Z,47.3399
2023-04-15T11:18:29.338Z,47.0227
2023-04-15T11:19:30.803Z,46.3401
2023-04-15T11:20:32.239Z,46.9554
2023-04-15T11:21:33.684Z,48.1554
2023-04-15T11:22:35.070Z,47.7093
2023-04-15T11:23:36.523Z,47.3613
2023-04-15T11:24:37.958Z,46.8887
2023-04-15T11:25:39.427Z,46.3142
2023-04-15T11:26:40.875Z,46.7459
2023-04-15T11:27:42.230Z,47.7770
2023-04-15T11:28:43.731Z,47.9621
2023-04-15T11:29:45.117Z,47.3027
2023-04-15T11:30:46.645Z,46.7976
2023-04-15T11:31:48.071Z,46.1646
2023-04-15T11:32:49.515Z,46.2645
2023-04-15T11:33:50.872Z,47.5334
2023-04-15T11:34:52.344Z,47.0790
2023-04-15T11:35:53.791Z,46.5549
2023-04-15T11:36:55.263Z,46.1961
2023-04-15T11:37:56.683Z,45.7075
2023-04-15T11:38:58.086Z,46.0987
2023-04-15T11:39:59.506Z,47.3440
2023-04-15T11:41:01.012Z,47.4359
2023-04-15T11:42:02.406Z,46.6939
2023-04-15T11:43:03.839Z,46.0520
2023-04-15T11:44:05.391Z,45.6226
2023-04-15T11:45:06.745Z,46.3101
2023-04-15T11:46:08.291Z,48.1167
2023-04-15T11:47:09.649Z,48.1389
2023-04-15T11:48:11.075Z,46.7231
2023-04-15T11:49:12.489Z,46.0152
2023-04-15T11:50:13.884Z,45.6204
2023-04-15T11:51:15.435Z,46.6439
2023-04-15T11:52:16.826Z,47.8649
2023-04-15T11:53:18.261Z,46.4520
2023-04-15T11:54:19.659Z,46.3371
2023-04-15T11:55:21.138Z,45.7601
2023-04-15T11:56:22.622Z,45.7720
2023-04-15T11:57:24.003Z,47.0628
2023-04-15T11:58:25.394Z,47.5865
2023-04-15T11:59:39.012Z,46.8291
2023-04-15T12:00:28.317Z,46.5170
2023-04-15T12:01:29.748Z,46.0826
2023-04-15T12:02:31.440Z,46.1477
2023-04-15T12:03:33.576Z,47.8784
2023-04-15T12:04:34.183Z,47.5877
2023-04-15T12:05:35.480Z,46.6966
2023-04-15T12:06:37.034Z,46.5090
2023-04-15T12:07:38.398Z,46.0562
2023-04-15T12:08:39.865Z,46.9094
2023-04-15T12:09:41.212Z,47.9621
2023-04-15T12:10:42.666Z,46.9379
2023-04-15T12:11:44.119Z,46.6489
2023-04-15T12:12:45.613Z,46.6158
2023-04-15T12:13:46.975Z,46.2931
2023-04-15T12:14:48.449Z,47.2493
2023-04-15T12:15:49.861Z,48.0307
2023-04-15T12:16:51.954Z,47.1789
2023-04-15T12:17:52.792Z,46.8222
2023-04-15T12:18:54.196Z,46.3670
2023-04-15T12:19:55.656Z,46.4584
2023-04-15T12:20:57.126Z,47.7625
2023-04-15T12:22:00.053Z,48.4875
2023-04-15T12:22:59.999Z,47.2812